MMTJ/TIJ METAR and TAF weather

Enter ICAO airport designator
Station Type Date Time Source
MMTJ METAR 2019/08/20 08:44 UTC NOAA

MMTJ 200844Z 32003KT 5SM SKC 18/17 A2994 RMK SLP140 50000 952 HZY ST-W


Station Type Date Time Source
MMTJ Decoded METAR 2019/08/20 08:44 UTC NOAA

Tijuana International Airport , Mexico (MMTJ) 32-33N 116-58W
Aug 20, 2019 - 04:44 AM EDT / 2019.08.20 0844 UTC
Wind: from the NW (320 degrees) at 3 MPH (3 KT):0
Visibility: 5 mile(s):0
Sky conditions: clear
Temperature: 64 F (18 C)
Dew Point: 62 F (17 C)
Relative Humidity: 93%
Pressure (altimeter): 29.94 in. Hg (1013 hPa)
Pressure tendency: 0.00 inches (0.0 hPa) higher than three hours ago
ob: MMTJ 200844Z 32003KT 5SM SKC 18/17 A2994 RMK SLP140 50000 952 HZY ST-W
cycle: 8

Station Type Date Time Source
MMTJ TAF 2019/08/20 06:26 UTC NOAA

TAF MMTJ 200521Z 2006/2112 27005KT 6SM HZ SCT015 TX25/2020Z TN18/2012Z
FM200800 30005KT 5SM HZ BKN015
TEMPO 2010/2014 3SM OVC010
FM201500 29006KT P6SM SCT015
FM201800 34010KT P6SM SKC
BECMG 2106/2108 30005KT 5SM HZ

Example: see airport list